sensor_id;sensor_type;location;lat;lon;timestamp;P1;durP1;ratioP1;P2;durP2;ratioP2
75914;SDS011;64593;51.050;13.780;2024-02-23T07:04:02;0.65;;;0.20;;
75914;SDS011;64593;51.050;13.780;2024-02-23T07:09:04;0.95;;;0.20;;
75914;SDS011;64593;51.050;13.780;2024-02-23T07:14:06;0.77;;;0.30;;
75914;SDS011;64593;51.050;13.780;2024-02-23T07:19:08;3.75;;;0.47;;
75914;SDS011;64593;51.050;13.780;2024-02-23T07:24:11;2.63;;;0.30;;
75914;SDS011;64593;51.050;13.780;2024-02-23T07:29:13;0.30;;;0.20;;
75914;SDS011;64593;51.050;13.780;2024-02-23T07:34:18;1.20;;;0.30;;
75914;SDS011;64593;51.050;13.780;2024-02-23T07:39:38;1.42;;;0.22;;
75914;SDS011;64593;51.050;13.780;2024-02-23T07:44:40;1.20;;;0.32;;
75914;SDS011;64593;51.050;13.780;2024-02-23T07:49:42;1.77;;;0.50;;
75914;SDS011;64593;51.050;13.780;2024-02-23T07:54:44;2.67;;;0.20;;
75914;SDS011;64593;51.050;13.780;2024-02-23T08:00:05;1.02;;;0.38;;
75914;SDS011;64593;51.050;13.780;2024-02-23T08:05:13;3.42;;;0.40;;
75914;SDS011;64593;51.050;13.780;2024-02-23T08:10:15;1.05;;;0.25;;
75914;SDS011;64593;51.050;13.780;2024-02-23T08:15:17;1.20;;;0.25;;
75914;SDS011;64593;51.050;13.780;2024-02-23T08:20:19;2.53;;;0.50;;
75914;SDS011;64593;51.050;13.780;2024-02-23T08:25:21;1.38;;;0.25;;
75914;SDS011;64593;51.050;13.780;2024-02-23T08:30:23;1.27;;;0.38;;
75914;SDS011;64593;51.050;13.780;2024-02-23T08:35:25;4.93;;;0.30;;
75914;SDS011;64593;51.050;13.780;2024-02-23T08:40:46;2.17;;;0.40;;
75914;SDS011;64593;51.050;13.780;2024-02-23T08:46:07;2.13;;;0.30;;
75914;SDS011;64593;51.050;13.780;2024-02-23T08:51:10;1.83;;;0.40;;
75914;SDS011;64593;51.050;13.780;2024-02-23T08:56:12;2.65;;;0.70;;
75914;SDS011;64593;51.050;13.780;2024-02-23T09:01:17;1.17;;;0.40;;
75914;SDS011;64593;51.050;13.780;2024-02-23T09:06:19;2.95;;;0.38;;
75914;SDS011;64593;51.050;13.780;2024-02-23T09:11:22;0.93;;;0.50;;
75914;SDS011;64593;51.050;13.780;2024-02-23T09:16:24;2.42;;;0.38;;
75914;SDS011;64593;51.050;13.780;2024-02-23T09:21:29;5.53;;;0.40;;
75914;SDS011;64593;51.050;13.780;2024-02-23T09:26:31;1.65;;;0.30;;
75914;SDS011;64593;51.050;13.780;2024-02-23T09:31:33;0.82;;;0.30;;
75914;SDS011;64593;51.050;13.780;2024-02-23T09:36:35;1.00;;;0.30;;
75914;SDS011;64593;51.050;13.780;2024-02-23T09:41:37;0.70;;;0.20;;
75914;SDS011;64593;51.050;13.780;2024-02-23T09:46:42;1.08;;;0.30;;
75914;SDS011;64593;51.050;13.780;2024-02-23T09:51:45;1.52;;;0.40;;
75914;SDS011;64593;51.050;13.780;2024-02-23T09:56:47;2.58;;;0.30;;
75914;SDS011;64593;51.050;13.780;2024-02-23T10:01:50;2.55;;;0.47;;
75914;SDS011;64593;51.050;13.780;2024-02-23T10:06:54;0.88;;;0.17;;
75914;SDS011;64593;51.050;13.780;2024-02-23T10:16:59;3.03;;;0.30;;
75914;SDS011;64593;51.050;13.780;2024-02-23T10:22:03;2.53;;;0.35;;
75914;SDS011;64593;51.050;13.780;2024-02-23T10:27:06;3.28;;;0.40;;
75914;SDS011;64593;51.050;13.780;2024-02-23T10:32:10;2.10;;;0.43;;
75914;SDS011;64593;51.050;13.780;2024-02-23T10:37:16;3.70;;;0.50;;
75914;SDS011;64593;51.050;13.780;2024-02-23T10:42:36;1.48;;;0.30;;
75914;SDS011;64593;51.050;13.780;2024-02-23T10:47:40;3.95;;;0.30;;
75914;SDS011;64593;51.050;13.780;2024-02-23T10:52:42;1.50;;;0.30;;
75914;SDS011;64593;51.050;13.780;2024-02-23T10:57:45;2.30;;;0.15;;
75914;SDS011;64593;51.050;13.780;2024-02-23T11:02:49;0.70;;;0.20;;
75914;SDS011;64593;51.050;13.780;2024-02-23T11:07:55;1.15;;;0.20;;
75914;SDS011;64593;51.050;13.780;2024-02-23T11:13:09;3.38;;;0.52;;
75914;SDS011;64593;51.050;13.780;2024-02-23T11:18:22;0.45;;;0.20;;
75914;SDS011;64593;51.050;13.780;2024-02-23T11:23:43;2.65;;;0.20;;
75914;SDS011;64593;51.050;13.780;2024-02-23T11:28:53;0.82;;;0.15;;
75914;SDS011;64593;51.050;13.780;2024-02-23T11:33:56;1.05;;;0.30;;
75914;SDS011;64593;51.050;13.780;2024-02-23T11:38:59;1.25;;;0.20;;
75914;SDS011;64593;51.050;13.780;2024-02-23T11:44:02;2.45;;;0.40;;
75914;SDS011;64593;51.050;13.780;2024-02-23T11:49:05;1.17;;;0.17;;
75914;SDS011;64593;51.050;13.780;2024-02-23T11:54:26;1.63;;;0.20;;
75914;SDS011;64593;51.050;13.780;2024-02-23T11:59:46;2.08;;;0.43;;
75914;SDS011;64593;51.050;13.780;2024-02-23T12:05:07;1.88;;;0.40;;
75914;SDS011;64593;51.050;13.780;2024-02-23T12:10:28;0.77;;;0.20;;
75914;SDS011;64593;51.050;13.780;2024-02-23T12:15:31;0.98;;;0.32;;
75914;SDS011;64593;51.050;13.780;2024-02-23T12:20:33;1.30;;;0.30;;
75914;SDS011;64593;51.050;13.780;2024-02-23T12:25:58;2.15;;;0.50;;
75914;SDS011;64593;51.050;13.780;2024-02-23T12:31:03;1.73;;;0.50;;
75914;SDS011;64593;51.050;13.780;2024-02-23T12:36:06;2.00;;;0.50;;
75914;SDS011;64593;51.050;13.780;2024-02-23T12:46:29;1.38;;;0.30;;
75914;SDS011;64593;51.050;13.780;2024-02-23T12:51:31;2.85;;;0.20;;
75914;SDS011;64593;51.050;13.780;2024-02-23T12:56:33;1.60;;;0.30;;
75914;SDS011;64593;51.050;13.780;2024-02-23T13:01:35;1.67;;;0.45;;
75914;SDS011;64593;51.050;13.780;2024-02-23T13:06:41;1.27;;;0.28;;
75914;SDS011;64593;51.050;13.780;2024-02-23T13:11:43;1.35;;;0.47;;
75914;SDS011;64593;51.050;13.780;2024-02-23T13:16:47;1.48;;;0.30;;
75914;SDS011;64593;51.050;13.780;2024-02-23T13:21:49;3.45;;;0.30;;
75914;SDS011;64593;51.050;13.780;2024-02-23T13:26:51;3.03;;;0.32;;
75914;SDS011;64593;51.050;13.780;2024-02-23T13:31:54;1.33;;;0.30;;
75914;SDS011;64593;51.050;13.780;2024-02-23T13:36:56;1.13;;;0.32;;
75914;SDS011;64593;51.050;13.780;2024-02-23T13:41:58;1.88;;;0.22;;
75914;SDS011;64593;51.050;13.780;2024-02-23T13:47:03;2.55;;;0.22;;
75914;SDS011;64593;51.050;13.780;2024-02-23T13:52:05;1.85;;;0.20;;
75914;SDS011;64593;51.050;13.780;2024-02-23T13:57:09;1.60;;;0.40;;
75914;SDS011;64593;51.050;13.780;2024-02-23T14:02:31;1.83;;;0.45;;
75914;SDS011;64593;51.050;13.780;2024-02-23T14:07:34;2.83;;;0.50;;
75914;SDS011;64593;51.050;13.780;2024-02-23T14:12:55;1.00;;;0.30;;
75914;SDS011;64593;51.050;13.780;2024-02-23T14:17:57;1.27;;;0.50;;
75914;SDS011;64593;51.050;13.780;2024-02-23T14:23:18;1.60;;;0.57;;
75914;SDS011;64593;51.050;13.780;2024-02-23T14:28:20;2.88;;;0.60;;
75914;SDS011;64593;51.050;13.780;2024-02-23T14:33:21;2.28;;;0.57;;
75914;SDS011;64593;51.050;13.780;2024-02-23T14:38:24;3.63;;;0.63;;
75914;SDS011;64593;51.050;13.780;2024-02-23T14:43:45;1.80;;;0.40;;
75914;SDS011;64593;51.050;13.780;2024-02-23T14:48:46;2.33;;;0.40;;
75914;SDS011;64593;51.050;13.780;2024-02-23T14:53:50;1.02;;;0.47;;
75914;SDS011;64593;51.050;13.780;2024-02-23T14:59:10;4.13;;;0.90;;
75914;SDS011;64593;51.050;13.780;2024-02-23T15:04:12;3.92;;;0.90;;
75914;SDS011;64593;51.050;13.780;2024-02-23T15:09:16;0.80;;;0.32;;
75914;SDS011;64593;51.050;13.780;2024-02-23T15:14:18;2.47;;;0.52;;
75914;SDS011;64593;51.050;13.780;2024-02-23T15:19:20;2.38;;;0.50;;
75914;SDS011;64593;51.050;13.780;2024-02-23T15:24:24;2.55;;;0.40;;
75914;SDS011;64593;51.050;13.780;2024-02-23T15:29:26;3.88;;;0.57;;
75914;SDS011;64593;51.050;13.780;2024-02-23T15:34:28;5.03;;;0.90;;
75914;SDS011;64593;51.050;13.780;2024-02-23T15:39:31;3.88;;;0.85;;
75914;SDS011;64593;51.050;13.780;2024-02-23T15:44:32;5.35;;;0.80;;
75914;SDS011;64593;51.050;13.780;2024-02-23T15:49:35;3.15;;;0.85;;
75914;SDS011;64593;51.050;13.780;2024-02-23T15:54:52;3.40;;;1.25;;
75914;SDS011;64593;51.050;13.780;2024-02-23T15:59:54;3.42;;;0.80;;
75914;SDS011;64593;51.050;13.780;2024-02-23T16:05:05;5.80;;;0.98;;
75914;SDS011;64593;51.050;13.780;2024-02-23T16:10:11;3.53;;;0.90;;
75914;SDS011;64593;51.050;13.780;2024-02-23T16:15:14;3.17;;;0.82;;
75914;SDS011;64593;51.050;13.780;2024-02-23T16:20:16;2.65;;;0.70;;
75914;SDS011;64593;51.050;13.780;2024-02-23T16:25:37;8.50;;;2.35;;
75914;SDS011;64593;51.050;13.780;2024-02-23T16:30:39;8.43;;;2.35;;
75914;SDS011;64593;51.050;13.780;2024-02-23T16:35:43;3.85;;;1.20;;
75914;SDS011;64593;51.050;13.780;2024-02-23T16:40:45;3.67;;;1.20;;
75914;SDS011;64593;51.050;13.780;2024-02-23T16:45:46;4.93;;;1.20;;
75914;SDS011;64593;51.050;13.780;2024-02-23T16:50:48;2.35;;;0.77;;
75914;SDS011;64593;51.050;13.780;2024-02-23T16:55:50;3.28;;;1.00;;
75914;SDS011;64593;51.050;13.780;2024-02-23T17:00:52;2.95;;;0.85;;
75914;SDS011;64593;51.050;13.780;2024-02-23T17:05:56;3.45;;;1.00;;
75914;SDS011;64593;51.050;13.780;2024-02-23T17:10:59;5.60;;;1.30;;
75914;SDS011;64593;51.050;13.780;2024-02-23T17:16:02;3.40;;;1.27;;
75914;SDS011;64593;51.050;13.780;2024-02-23T17:21:04;6.05;;;1.20;;
75914;SDS011;64593;51.050;13.780;2024-02-23T17:26:06;4.78;;;1.77;;
75914;SDS011;64593;51.050;13.780;2024-02-23T17:31:08;5.55;;;2.47;;
75914;SDS011;64593;51.050;13.780;2024-02-23T17:36:10;6.82;;;1.98;;
75914;SDS011;64593;51.050;13.780;2024-02-23T17:41:12;4.03;;;1.40;;
75914;SDS011;64593;51.050;13.780;2024-02-23T17:46:18;5.55;;;1.45;;
75914;SDS011;64593;51.050;13.780;2024-02-23T17:51:22;3.58;;;1.48;;
75914;SDS011;64593;51.050;13.780;2024-02-23T17:56:24;5.50;;;2.00;;
75914;SDS011;64593;51.050;13.780;2024-02-23T18:01:26;4.18;;;1.77;;
75914;SDS011;64593;51.050;13.780;2024-02-23T18:06:28;6.93;;;2.40;;
75914;SDS011;64593;51.050;13.780;2024-02-23T18:11:30;5.38;;;2.88;;
75914;SDS011;64593;51.050;13.780;2024-02-23T18:16:32;6.78;;;2.30;;
75914;SDS011;64593;51.050;13.780;2024-02-23T18:21:34;5.78;;;2.22;;
75914;SDS011;64593;51.050;13.780;2024-02-23T18:26:36;7.55;;;2.08;;
75914;SDS011;64593;51.050;13.780;2024-02-23T18:31:42;5.97;;;2.55;;
75914;SDS011;64593;51.050;13.780;2024-02-23T18:36:52;6.43;;;2.13;;
75914;SDS011;64593;51.050;13.780;2024-02-23T18:42:04;6.30;;;2.47;;
75914;SDS011;64593;51.050;13.780;2024-02-23T18:47:12;8.93;;;3.25;;
75914;SDS011;64593;51.050;13.780;2024-02-23T18:52:16;13.70;;;4.43;;
75914;SDS011;64593;51.050;13.780;2024-02-23T18:57:36;7.75;;;3.75;;
75914;SDS011;64593;51.050;13.780;2024-02-23T19:02:57;9.45;;;4.22;;
75914;SDS011;64593;51.050;13.780;2024-02-23T19:07:59;6.20;;;3.22;;
75914;SDS011;64593;51.050;13.780;2024-02-23T19:13:01;7.97;;;3.10;;
75914;SDS011;64593;51.050;13.780;2024-02-23T19:18:03;7.28;;;3.00;;
75914;SDS011;64593;51.050;13.780;2024-02-23T19:23:05;11.68;;;3.20;;
75914;SDS011;64593;51.050;13.780;2024-02-23T19:28:07;7.05;;;3.28;;
75914;SDS011;64593;51.050;13.780;2024-02-23T19:33:28;7.22;;;3.45;;
75914;SDS011;64593;51.050;13.780;2024-02-23T19:38:48;9.75;;;3.72;;
75914;SDS011;64593;51.050;13.780;2024-02-23T19:43:52;8.43;;;3.65;;
75914;SDS011;64593;51.050;13.780;2024-02-23T19:48:54;7.55;;;3.20;;
75914;SDS011;64593;51.050;13.780;2024-02-23T19:53:57;7.90;;;3.13;;
75914;SDS011;64593;51.050;13.780;2024-02-23T19:58:59;7.13;;;3.53;;
75914;SDS011;64593;51.050;13.780;2024-02-23T20:04:01;8.57;;;3.65;;
75914;SDS011;64593;51.050;13.780;2024-02-23T20:09:21;8.18;;;3.33;;
75914;SDS011;64593;51.050;13.780;2024-02-23T20:14:23;6.45;;;3.00;;
75914;SDS011;64593;51.050;13.780;2024-02-23T20:19:25;8.52;;;3.30;;
75914;SDS011;64593;51.050;13.780;2024-02-23T20:24:27;7.70;;;3.35;;
75914;SDS011;64593;51.050;13.780;2024-02-23T20:29:29;8.00;;;3.33;;
75914;SDS011;64593;51.050;13.780;2024-02-23T20:34:32;9.15;;;3.85;;
75914;SDS011;64593;51.050;13.780;2024-02-23T20:39:34;12.50;;;5.40;;
75914;SDS011;64593;51.050;13.780;2024-02-23T20:44:36;6.10;;;2.80;;
75914;SDS011;64593;51.050;13.780;2024-02-23T20:49:38;7.80;;;2.97;;
75914;SDS011;64593;51.050;13.780;2024-02-23T20:54:40;8.05;;;2.83;;
75914;SDS011;64593;51.050;13.780;2024-02-23T20:59:47;6.40;;;2.78;;
75914;SDS011;64593;51.050;13.780;2024-02-23T21:04:49;6.20;;;2.95;;
75914;SDS011;64593;51.050;13.780;2024-02-23T21:09:51;4.55;;;2.72;;
75914;SDS011;64593;51.050;13.780;2024-02-23T21:14:54;8.25;;;2.97;;
75914;SDS011;64593;51.050;13.780;2024-02-23T21:19:56;4.20;;;2.33;;
75914;SDS011;64593;51.050;13.780;2024-02-23T21:24:58;8.73;;;2.58;;
75914;SDS011;64593;51.050;13.780;2024-02-23T21:30:00;6.70;;;2.60;;
75914;SDS011;64593;51.050;13.780;2024-02-23T21:35:05;6.93;;;3.33;;
75914;SDS011;64593;51.050;13.780;2024-02-23T21:40:07;7.47;;;2.33;;
75914;SDS011;64593;51.050;13.780;2024-02-23T21:45:10;3.95;;;2.08;;
75914;SDS011;64593;51.050;13.780;2024-02-23T21:50:12;9.02;;;2.95;;
75914;SDS011;64593;51.050;13.780;2024-02-23T21:55:15;5.93;;;2.65;;
75914;SDS011;64593;51.050;13.780;2024-02-23T22:00:18;5.07;;;2.17;;
75914;SDS011;64593;51.050;13.780;2024-02-23T22:05:20;5.30;;;2.40;;
75914;SDS011;64593;51.050;13.780;2024-02-23T22:10:22;7.03;;;2.50;;
75914;SDS011;64593;51.050;13.780;2024-02-23T22:15:24;5.93;;;2.85;;
75914;SDS011;64593;51.050;13.780;2024-02-23T22:20:26;5.60;;;2.50;;
75914;SDS011;64593;51.050;13.780;2024-02-23T22:30:50;8.52;;;3.33;;
75914;SDS011;64593;51.050;13.780;2024-02-23T22:35:52;6.43;;;2.50;;
75914;SDS011;64593;51.050;13.780;2024-02-23T22:40:54;6.50;;;2.17;;
75914;SDS011;64593;51.050;13.780;2024-02-23T22:45:56;4.82;;;2.38;;
75914;SDS011;64593;51.050;13.780;2024-02-23T22:51:02;9.00;;;2.60;;
75914;SDS011;64593;51.050;13.780;2024-02-23T22:56:22;6.07;;;2.50;;
